sensor_id;sensor_type;location;lat;lon;timestamp;pressure;altitude;pressure_sealevel;temperature;humidity
73651;BME280;61944;52.538;6.108;2024-01-15T05:47:44;99841.47;;;1.91;100.00
73651;BME280;61944;52.538;6.108;2024-01-15T05:50:10;99844.69;;;2.06;100.00
73651;BME280;61944;52.538;6.108;2024-01-15T05:52:35;99850.22;;;1.93;100.00
73651;BME280;61944;52.538;6.108;2024-01-15T05:55:01;99851.94;;;1.86;100.00
73651;BME280;61944;52.538;6.108;2024-01-15T05:57:26;99843.19;;;1.71;100.00
73651;BME280;61944;52.538;6.108;2024-01-15T05:59:52;99848.25;;;1.94;100.00
73651;BME280;61944;52.538;6.108;2024-01-15T06:02:17;99841.13;;;1.93;100.00
73651;BME280;61944;52.538;6.108;2024-01-15T06:04:42;99832.59;;;1.98;100.00
73651;BME280;61944;52.538;6.108;2024-01-15T06:07:08;99834.69;;;2.01;100.00
73651;BME280;61944;52.538;6.108;2024-01-15T06:09:33;99832.63;;;1.73;100.00
73651;BME280;61944;52.538;6.108;2024-01-15T06:11:59;99829.38;;;1.96;100.00
73651;BME280;61944;52.538;6.108;2024-01-15T06:14:24;99831.47;;;1.87;100.00
73651;BME280;61944;52.538;6.108;2024-01-15T06:16:49;99828.56;;;1.71;100.00
73651;BME280;61944;52.538;6.108;2024-01-15T06:19:15;99820.44;;;1.87;100.00
73651;BME280;61944;52.538;6.108;2024-01-15T06:21:40;99825.47;;;1.72;100.00
73651;BME280;61944;52.538;6.108;2024-01-15T06:24:05;99824.22;;;1.70;100.00
73651;BME280;61944;52.538;6.108;2024-01-15T06:26:31;99819.88;;;1.69;100.00
73651;BME280;61944;52.538;6.108;2024-01-15T06:28:56;99813.75;;;1.51;100.00
73651;BME280;61944;52.538;6.108;2024-01-15T06:31:22;99824.09;;;1.78;100.00
73651;BME280;61944;52.538;6.108;2024-01-15T06:33:47;99816.97;;;1.53;100.00
73651;BME280;61944;52.538;6.108;2024-01-15T06:36:13;99813.19;;;1.57;100.00
73651;BME280;61944;52.538;6.108;2024-01-15T06:38:39;99821.81;;;1.80;100.00
73651;BME280;61944;52.538;6.108;2024-01-15T06:41:04;99817.44;;;1.55;100.00
73651;BME280;61944;52.538;6.108;2024-01-15T06:43:29;99822.25;;;1.70;100.00
73651;BME280;61944;52.538;6.108;2024-01-15T06:45:55;99819.50;;;1.58;100.00
73651;BME280;61944;52.538;6.108;2024-01-15T06:48:20;99811.22;;;1.58;100.00
73651;BME280;61944;52.538;6.108;2024-01-15T06:50:46;99804.56;;;1.59;100.00
73651;BME280;61944;52.538;6.108;2024-01-15T06:53:11;99804.31;;;1.52;100.00
73651;BME280;61944;52.538;6.108;2024-01-15T06:55:37;99804.88;;;2.19;100.00
73651;BME280;61944;52.538;6.108;2024-01-15T06:58:03;99804.13;;;1.69;100.00
73651;BME280;61944;52.538;6.108;2024-01-15T07:00:28;99801.34;;;1.57;100.00
73651;BME280;61944;52.538;6.108;2024-01-15T07:02:54;99793.75;;;1.41;100.00
73651;BME280;61944;52.538;6.108;2024-01-15T07:05:20;99788.56;;;1.40;100.00
73651;BME280;61944;52.538;6.108;2024-01-15T07:07:46;99781.34;;;1.48;100.00
73651;BME280;61944;52.538;6.108;2024-01-15T07:10:12;99776.03;;;1.30;100.00
73651;BME280;61944;52.538;6.108;2024-01-15T07:12:38;99792.63;;;1.67;100.00
73651;BME280;61944;52.538;6.108;2024-01-15T07:15:04;99794.44;;;1.63;100.00
73651;BME280;61944;52.538;6.108;2024-01-15T07:17:31;99802.47;;;1.56;100.00
73651;BME280;61944;52.538;6.108;2024-01-15T07:19:57;99804.56;;;1.47;100.00
73651;BME280;61944;52.538;6.108;2024-01-15T07:22:22;99804.88;;;1.45;100.00
73651;BME280;61944;52.538;6.108;2024-01-15T07:24:47;99802.72;;;1.51;100.00
73651;BME280;61944;52.538;6.108;2024-01-15T07:27:13;99801.00;;;1.71;100.00
73651;BME280;61944;52.538;6.108;2024-01-15T07:29:38;99814.53;;;1.51;100.00
73651;BME280;61944;52.538;6.108;2024-01-15T07:32:04;99814.53;;;1.27;100.00
73651;BME280;61944;52.538;6.108;2024-01-15T07:34:30;99817.28;;;1.39;100.00
73651;BME280;61944;52.538;6.108;2024-01-15T07:36:55;99811.91;;;1.42;100.00
73651;BME280;61944;52.538;6.108;2024-01-15T07:39:21;99816.75;;;1.46;100.00
73651;BME280;61944;52.538;6.108;2024-01-15T07:41:48;99822.94;;;1.55;100.00
73651;BME280;61944;52.538;6.108;2024-01-15T07:44:13;99812.59;;;1.39;100.00
73651;BME280;61944;52.538;6.108;2024-01-15T07:46:40;99814.22;;;1.53;100.00
73651;BME280;61944;52.538;6.108;2024-01-15T07:49:08;99808.56;;;1.49;100.00
73651;BME280;61944;52.538;6.108;2024-01-15T07:51:34;99823.53;;;1.60;100.00
73651;BME280;61944;52.538;6.108;2024-01-15T07:53:59;99813.25;;;1.36;100.00
73651;BME280;61944;52.538;6.108;2024-01-15T07:56:25;99809.00;;;1.27;100.00
73651;BME280;61944;52.538;6.108;2024-01-15T07:58:52;99818.78;;;1.36;100.00
73651;BME280;61944;52.538;6.108;2024-01-15T08:01:17;99813.03;;;1.54;100.00
73651;BME280;61944;52.538;6.108;2024-01-15T08:03:43;99817.19;;;1.35;100.00
73651;BME280;61944;52.538;6.108;2024-01-15T08:06:11;99821.44;;;1.45;100.00
73651;BME280;61944;52.538;6.108;2024-01-15T08:08:37;99821.66;;;1.40;100.00
73651;BME280;61944;52.538;6.108;2024-01-15T08:11:03;99825.78;;;1.34;100.00
73651;BME280;61944;52.538;6.108;2024-01-15T08:13:28;99821.91;;;1.47;100.00
73651;BME280;61944;52.538;6.108;2024-01-15T08:15:53;99817.19;;;1.35;100.00
73651;BME280;61944;52.538;6.108;2024-01-15T08:18:19;99811.81;;;1.63;100.00
73651;BME280;61944;52.538;6.108;2024-01-15T08:20:46;99819.50;;;1.58;100.00
73651;BME280;61944;52.538;6.108;2024-01-15T08:23:12;99829.03;;;1.73;100.00
73651;BME280;61944;52.538;6.108;2024-01-15T08:25:37;99832.38;;;1.78;100.00
73651;BME280;61944;52.538;6.108;2024-01-15T08:28:02;99841.81;;;1.90;100.00
73651;BME280;61944;52.538;6.108;2024-01-15T08:30:28;99833.78;;;1.85;100.00
73651;BME280;61944;52.538;6.108;2024-01-15T08:32:54;99836.06;;;1.82;100.00
73651;BME280;61944;52.538;6.108;2024-01-15T08:35:19;99831.94;;;1.76;100.00
73651;BME280;61944;52.538;6.108;2024-01-15T08:37:51;99834.34;;;1.90;100.00
73651;BME280;61944;52.538;6.108;2024-01-15T08:40:17;99835.16;;;2.03;100.00
73651;BME280;61944;52.538;6.108;2024-01-15T08:42:43;99841.59;;;1.95;100.00
73651;BME280;61944;52.538;6.108;2024-01-15T08:45:09;99831.69;;;1.57;100.00
73651;BME280;61944;52.538;6.108;2024-01-15T08:47:35;99826.16;;;1.45;100.00
73651;BME280;61944;52.538;6.108;2024-01-15T08:50:01;99833.41;;;1.74;100.00
73651;BME280;61944;52.538;6.108;2024-01-15T08:52:28;99819.72;;;1.53;100.00
73651;BME280;61944;52.538;6.108;2024-01-15T08:54:55;99812.50;;;1.60;100.00
73651;BME280;61944;52.538;6.108;2024-01-15T08:57:20;99822.13;;;1.42;100.00
73651;BME280;61944;52.538;6.108;2024-01-15T08:59:47;99807.75;;;1.36;100.00
73651;BME280;61944;52.538;6.108;2024-01-15T09:02:12;99808.53;;;1.37;100.00
73651;BME280;61944;52.538;6.108;2024-01-15T09:04:37;99802.94;;;1.33;100.00
73651;BME280;61944;52.538;6.108;2024-01-15T09:07:03;99808.44;;;1.33;100.00
73651;BME280;61944;52.538;6.108;2024-01-15T09:09:28;99813.88;;;1.54;100.00
73651;BME280;61944;52.538;6.108;2024-01-15T09:11:54;99817.91;;;1.57;100.00
73651;BME280;61944;52.538;6.108;2024-01-15T09:14:19;99834.47;;;1.69;100.00
73651;BME280;61944;52.538;6.108;2024-01-15T09:16:47;99839.28;;;1.72;100.00
73651;BME280;61944;52.538;6.108;2024-01-15T09:19:12;99826.16;;;1.45;100.00
73651;BME280;61944;52.538;6.108;2024-01-15T09:21:38;99833.97;;;1.42;100.00
73651;BME280;61944;52.538;6.108;2024-01-15T09:24:04;99834.44;;;1.57;100.00
73651;BME280;61944;52.538;6.108;2024-01-15T09:26:29;99842.03;;;1.60;100.00
73651;BME280;61944;52.538;6.108;2024-01-15T09:28:54;99841.13;;;1.68;100.00
73651;BME280;61944;52.538;6.108;2024-01-15T09:31:20;99836.53;;;1.72;100.00
73651;BME280;61944;52.538;6.108;2024-01-15T09:33:46;99841.94;;;1.69;100.00
73651;BME280;61944;52.538;6.108;2024-01-15T09:36:11;99833.66;;;1.56;100.00
73651;BME280;61944;52.538;6.108;2024-01-15T09:38:37;99837.09;;;1.66;100.00
73651;BME280;61944;52.538;6.108;2024-01-15T09:41:03;99846.41;;;1.73;100.00
73651;BME280;61944;52.538;6.108;2024-01-15T09:43:28;99826.28;;;1.97;100.00
73651;BME280;61944;52.538;6.108;2024-01-15T09:45:54;99838.94;;;1.74;100.00
73651;BME280;61944;52.538;6.108;2024-01-15T09:48:20;99834.56;;;1.73;100.00
73651;BME280;61944;52.538;6.108;2024-01-15T09:50:46;99832.63;;;1.73;100.00
73651;BME280;61944;52.538;6.108;2024-01-15T09:53:11;99835.59;;;1.80;100.00
73651;BME280;61944;52.538;6.108;2024-01-15T09:55:38;99830.88;;;1.93;100.00
73651;BME280;61944;52.538;6.108;2024-01-15T09:58:03;99836.75;;;1.92;100.00
73651;BME280;61944;52.538;6.108;2024-01-15T10:00:29;99829.63;;;1.91;100.00
73651;BME280;61944;52.538;6.108;2024-01-15T10:02:56;99829.38;;;1.96;100.00
73651;BME280;61944;52.538;6.108;2024-01-15T10:05:22;99840.53;;;1.75;100.00
73651;BME280;61944;52.538;6.108;2024-01-15T10:07:48;99833.78;;;1.85;100.00
73651;BME280;61944;52.538;6.108;2024-01-15T10:10:15;99821.81;;;1.68;100.00
73651;BME280;61944;52.538;6.108;2024-01-15T10:12:41;99812.03;;;1.58;100.00
73651;BME280;61944;52.538;6.108;2024-01-15T10:15:09;99817.78;;;1.78;100.00
73651;BME280;61944;52.538;6.108;2024-01-15T10:17:37;99815.47;;;1.55;100.00
73651;BME280;61944;52.538;6.108;2024-01-15T10:20:07;99834.91;;;1.71;100.00
73651;BME280;61944;52.538;6.108;2024-01-15T10:22:33;99820.78;;;1.60;100.00
73651;BME280;61944;52.538;6.108;2024-01-15T10:25:03;99825.47;;;1.72;100.00
73651;BME280;61944;52.538;6.108;2024-01-15T10:27:28;99822.72;;;1.85;100.00
73651;BME280;61944;52.538;6.108;2024-01-15T10:29:59;99820.09;;;2.00;100.00
73651;BME280;61944;52.538;6.108;2024-01-15T10:32:24;99830.88;;;2.18;100.00
73651;BME280;61944;52.538;6.108;2024-01-15T10:34:52;99838.59;;;2.12;100.00
73651;BME280;61944;52.538;6.108;2024-01-15T10:37:17;99845.03;;;2.04;100.00
73651;BME280;61944;52.538;6.108;2024-01-15T10:39:43;99844.34;;;1.95;100.00
73651;BME280;61944;52.538;6.108;2024-01-15T10:42:09;99833.31;;;1.95;100.00
73651;BME280;61944;52.538;6.108;2024-01-15T10:44:35;99824.00;;;1.87;100.00
73651;BME280;61944;52.538;6.108;2024-01-15T10:47:00;99828.97;;;1.81;100.00
73651;BME280;61944;52.538;6.108;2024-01-15T10:49:26;99834.22;;;1.99;100.00
73651;BME280;61944;52.538;6.108;2024-01-15T10:51:53;99835.25;;;2.07;100.00
73651;BME280;61944;52.538;6.108;2024-01-15T10:54:19;99831.94;;;2.13;100.00
73651;BME280;61944;52.538;6.108;2024-01-15T10:56:46;99840.88;;;2.10;100.00
73651;BME280;61944;52.538;6.108;2024-01-15T10:59:13;99833.53;;;2.02;100.00
73651;BME280;61944;52.538;6.108;2024-01-15T11:01:39;99839.50;;;2.16;100.00
73651;BME280;61944;52.538;6.108;2024-01-15T11:04:04;99848.50;;;2.01;100.00
73651;BME280;61944;52.538;6.108;2024-01-15T11:06:51;99853.88;;;2.22;100.00
73651;BME280;61944;52.538;6.108;2024-01-15T11:09:18;99860.66;;;2.12;100.00
73651;BME280;61944;52.538;6.108;2024-01-15T11:11:45;99865.63;;;2.07;100.00
73651;BME280;61944;52.538;6.108;2024-01-15T11:14:35;99874.94;;;2.02;100.00
73651;BME280;61944;52.538;6.108;2024-01-15T11:17:01;99875.03;;;1.69;100.00
73651;BME280;61944;52.538;6.108;2024-01-15T11:19:38;99868.69;;;1.68;100.00
73651;BME280;61944;52.538;6.108;2024-01-15T11:24:54;99866.03;;;1.59;100.00
73651;BME280;61944;52.538;6.108;2024-01-15T11:27:39;99862.25;;;1.64;100.00
73651;BME280;61944;52.538;6.108;2024-01-15T11:30:08;99857.78;;;1.72;100.00
73651;BME280;61944;52.538;6.108;2024-01-15T11:32:34;99867.00;;;1.88;100.00
73651;BME280;61944;52.538;6.108;2024-01-15T11:35:02;99857.47;;;1.73;100.00
73651;BME280;61944;52.538;6.108;2024-01-15T11:42:45;99852.16;;;1.68;100.00
73651;BME280;61944;52.538;6.108;2024-01-15T11:45:11;99861.38;;;1.85;100.00
73651;BME280;61944;52.538;6.108;2024-01-15T11:48:12;99858.38;;;1.65;100.00
73651;BME280;61944;52.538;6.108;2024-01-15T11:50:46;99856.31;;;1.87;100.00
73651;BME280;61944;52.538;6.108;2024-01-15T11:55:52;99860.66;;;1.88;100.00
73651;BME280;61944;52.538;6.108;2024-01-15T11:58:18;99864.13;;;1.97;100.00
73651;BME280;61944;52.538;6.108;2024-01-15T12:00:52;99851.72;;;2.03;100.00
73651;BME280;61944;52.538;6.108;2024-01-15T12:03:24;99863.34;;;1.96;100.00
73651;BME280;61944;52.538;6.108;2024-01-15T12:05:51;99864.81;;;2.06;100.00
73651;BME280;61944;52.538;6.108;2024-01-15T12:08:21;99863.69;;;2.07;100.00
73651;BME280;61944;52.538;6.108;2024-01-15T12:10:46;99864.13;;;2.09;100.00
73651;BME280;61944;52.538;6.108;2024-01-15T12:13:13;99869.41;;;2.14;100.00
73651;BME280;61944;52.538;6.108;2024-01-15T12:15:39;99868.75;;;2.17;100.00
73651;BME280;61944;52.538;6.108;2024-01-15T12:18:12;99867.34;;;2.23;100.00
73651;BME280;61944;52.538;6.108;2024-01-15T12:20:39;99863.56;;;2.16;100.00
73651;BME280;61944;52.538;6.108;2024-01-15T12:23:05;99873.69;;;2.24;100.00
73651;BME280;61944;52.538;6.108;2024-01-15T12:25:34;99869.06;;;2.28;100.00
73651;BME280;61944;52.538;6.108;2024-01-15T12:28:00;99874.00;;;2.22;100.00
73651;BME280;61944;52.538;6.108;2024-01-15T12:30:27;99869.16;;;2.32;100.00
73651;BME280;61944;52.538;6.108;2024-01-15T12:32:53;99870.78;;;2.33;100.00
73651;BME280;61944;52.538;6.108;2024-01-15T12:35:18;99876.31;;;2.33;100.00
73651;BME280;61944;52.538;6.108;2024-01-15T12:37:44;99881.25;;;2.39;100.00
73651;BME280;61944;52.538;6.108;2024-01-15T12:40:12;99882.75;;;2.37;100.00
73651;BME280;61944;52.538;6.108;2024-01-15T12:42:41;99880.34;;;2.35;100.00
73651;BME280;61944;52.538;6.108;2024-01-15T12:45:08;99894.81;;;2.44;100.00
73651;BME280;61944;52.538;6.108;2024-01-15T12:47:34;99898.41;;;2.45;100.00
73651;BME280;61944;52.538;6.108;2024-01-15T12:49:59;99895.63;;;2.45;100.00
73651;BME280;61944;52.538;6.108;2024-01-15T12:52:27;99894.25;;;2.51;100.00
73651;BME280;61944;52.538;6.108;2024-01-15T12:54:52;99900.91;;;2.50;100.00
73651;BME280;61944;52.538;6.108;2024-01-15T12:57:18;99898.59;;;2.52;100.00
73651;BME280;61944;52.538;6.108;2024-01-15T12:59:46;99901.84;;;2.42;100.00
73651;BME280;61944;52.538;6.108;2024-01-15T13:02:12;99903.47;;;2.43;100.00
73651;BME280;61944;52.538;6.108;2024-01-15T13:04:37;99900.00;;;2.46;100.00
73651;BME280;61944;52.538;6.108;2024-01-15T13:07:04;99898.41;;;2.45;100.00
73651;BME280;61944;52.538;6.108;2024-01-15T13:09:32;99893.91;;;2.40;100.00
73651;BME280;61944;52.538;6.108;2024-01-15T13:11:57;99898.16;;;2.50;100.00
73651;BME280;61944;52.538;6.108;2024-01-15T13:14:23;99902.06;;;2.49;100.00
73651;BME280;61944;52.538;6.108;2024-01-15T13:16:48;99895.84;;;2.52;100.00
73651;BME280;61944;52.538;6.108;2024-01-15T13:19:13;99892.47;;;2.71;100.00
73651;BME280;61944;52.538;6.108;2024-01-15T13:21:42;99903.19;;;2.60;100.00
73651;BME280;61944;52.538;6.108;2024-01-15T13:24:07;99904.84;;;2.49;100.00
73651;BME280;61944;52.538;6.108;2024-01-15T13:26:34;99910.13;;;2.54;100.00
73651;BME280;61944;52.538;6.108;2024-01-15T13:29:00;99913.78;;;2.58;100.00
73651;BME280;61944;52.538;6.108;2024-01-15T13:31:26;99916.09;;;2.56;100.00
73651;BME280;61944;52.538;6.108;2024-01-15T13:33:52;99917.34;;;2.59;100.00
73651;BME280;61944;52.538;6.108;2024-01-15T13:36:17;99924.97;;;2.50;100.00
73651;BME280;61944;52.538;6.108;2024-01-15T13:38:42;99931.53;;;2.57;100.00
73651;BME280;61944;52.538;6.108;2024-01-15T13:41:08;99937.06;;;2.45;100.00
73651;BME280;61944;52.538;6.108;2024-01-15T13:43:33;99931.75;;;2.40;100.00
73651;BME280;61944;52.538;6.108;2024-01-15T13:45:59;99934.06;;;2.50;100.00
73651;BME280;61944;52.538;6.108;2024-01-15T13:48:25;99946.94;;;2.46;100.00
73651;BME280;61944;52.538;6.108;2024-01-15T13:50:51;99947.75;;;2.47;100.00
73651;BME280;61944;52.538;6.108;2024-01-15T13:53:20;99954.09;;;2.47;100.00
73651;BME280;61944;52.538;6.108;2024-01-15T13:55:45;99958.34;;;2.44;100.00
73651;BME280;61944;52.538;6.108;2024-01-15T13:58:10;99955.16;;;2.42;100.00
73651;BME280;61944;52.538;6.108;2024-01-15T14:00:36;99964.91;;;2.40;100.00
73651;BME280;61944;52.538;6.108;2024-01-15T14:03:02;99964.44;;;2.50;100.00
73651;BME280;61944;52.538;6.108;2024-01-15T14:05:27;99970.56;;;2.43;100.00
73651;BME280;61944;52.538;6.108;2024-01-15T14:07:53;99965.81;;;2.44;100.00
73651;BME280;61944;52.538;6.108;2024-01-15T14:10:18;99967.66;;;2.40;100.00
73651;BME280;61944;52.538;6.108;2024-01-15T14:12:43;99960.22;;;2.40;100.00
73651;BME280;61944;52.538;6.108;2024-01-15T14:15:09;99964.31;;;2.47;100.00
73651;BME280;61944;52.538;6.108;2024-01-15T14:17:34;99966.28;;;2.34;100.00
73651;BME280;61944;52.538;6.108;2024-01-15T14:20:00;99973.44;;;2.35;100.00
73651;BME280;61944;52.538;6.108;2024-01-15T14:22:25;99975.03;;;2.48;100.00
73651;BME280;61944;52.538;6.108;2024-01-15T14:24:50;99977.78;;;2.48;100.00
73651;BME280;61944;52.538;6.108;2024-01-15T14:27:16;99982.63;;;2.39;100.00
73651;BME280;61944;52.538;6.108;2024-01-15T14:29:42;99982.63;;;2.39;100.00
73651;BME280;61944;52.538;6.108;2024-01-15T14:32:07;99973.78;;;2.46;100.00
73651;BME280;61944;52.538;6.108;2024-01-15T14:34:33;99984.13;;;2.36;100.00
73651;BME280;61944;52.538;6.108;2024-01-15T14:36:58;99993.69;;;2.39;100.00
73651;BME280;61944;52.538;6.108;2024-01-15T14:39:24;99996.91;;;2.53;100.00
73651;BME280;61944;52.538;6.108;2024-01-15T14:41:49;99998.38;;;2.51;100.00
73651;BME280;61944;52.538;6.108;2024-01-15T14:44:15;100000.59;;;2.45;100.00
73651;BME280;61944;52.538;6.108;2024-01-15T14:46:40;100000.22;;;2.47;100.00
73651;BME280;61944;52.538;6.108;2024-01-15T14:49:06;100009.78;;;2.37;100.00
73651;BME280;61944;52.538;6.108;2024-01-15T14:51:31;100017.28;;;2.36;100.00
73651;BME280;61944;52.538;6.108;2024-01-15T14:53:57;100019.09;;;2.44;100.00
73651;BME280;61944;52.538;6.108;2024-01-15T14:56:22;100023.38;;;2.42;100.00
73651;BME280;61944;52.538;6.108;2024-01-15T14:58:48;100025.31;;;2.41;100.00
73651;BME280;61944;52.538;6.108;2024-01-15T15:01:13;100021.97;;;2.36;100.00
73651;BME280;61944;52.538;6.108;2024-01-15T15:03:39;100036.34;;;2.29;100.00
73651;BME280;61944;52.538;6.108;2024-01-15T15:06:04;100033.81;;;2.24;100.00
73651;BME280;61944;52.538;6.108;2024-01-15T15:08:32;100021.06;;;2.19;100.00
73651;BME280;61944;52.538;6.108;2024-01-15T15:10:57;100031.41;;;2.22;100.00
73651;BME280;61944;52.538;6.108;2024-01-15T15:13:23;100035.78;;;2.23;100.00
73651;BME280;61944;52.538;6.108;2024-01-15T15:15:48;100039.44;;;2.28;100.00
73651;BME280;61944;52.538;6.108;2024-01-15T15:18:14;100025.06;;;2.22;100.00
73651;BME280;61944;52.538;6.108;2024-01-15T15:20:39;100022.69;;;2.82;100.00
73651;BME280;61944;52.538;6.108;2024-01-15T15:23:04;100024.28;;;2.46;100.00
73651;BME280;61944;52.538;6.108;2024-01-15T15:25:36;100030.69;;;2.26;100.00
73651;BME280;61944;52.538;6.108;2024-01-15T15:28:01;100038.09;;;2.34;100.00
73651;BME280;61944;52.538;6.108;2024-01-15T15:30:30;100038.34;;;2.41;100.00
73651;BME280;61944;52.538;6.108;2024-01-15T15:32:55;100043.13;;;2.32;100.00
73651;BME280;61944;52.538;6.108;2024-01-15T15:35:21;100044.31;;;2.31;100.00
73651;BME280;61944;52.538;6.108;2024-01-15T15:37:46;100039.22;;;2.20;100.00
73651;BME280;61944;52.538;6.108;2024-01-15T15:40:11;100052.59;;;2.31;100.00
73651;BME280;61944;52.538;6.108;2024-01-15T15:42:38;100052.78;;;2.26;100.00
73651;BME280;61944;52.538;6.108;2024-01-15T15:45:04;100051.81;;;2.42;100.00
73651;BME280;61944;52.538;6.108;2024-01-15T15:47:30;100074.09;;;2.25;100.00
73651;BME280;61944;52.538;6.108;2024-01-15T15:49:55;100068.94;;;2.36;100.00
73651;BME280;61944;52.538;6.108;2024-01-15T15:52:21;100067.75;;;2.24;100.00
73651;BME280;61944;52.538;6.108;2024-01-15T15:54:46;100077.22;;;2.23;100.00
73651;BME280;61944;52.538;6.108;2024-01-15T15:57:11;100091.06;;;2.15;100.00
73651;BME280;61944;52.538;6.108;2024-01-15T15:59:37;100087.97;;;2.16;100.00
73651;BME280;61944;52.538;6.108;2024-01-15T16:02:02;100090.53;;;2.21;100.00
73651;BME280;61944;52.538;6.108;2024-01-15T16:04:28;100097.66;;;1.89;100.00
73651;BME280;61944;52.538;6.108;2024-01-15T16:06:53;100099.06;;;1.95;100.00
73651;BME280;61944;52.538;6.108;2024-01-15T16:09:19;100096.63;;;1.94;100.00
73651;BME280;61944;52.538;6.108;2024-01-15T16:11:45;100111.66;;;2.05;100.00
73651;BME280;61944;52.538;6.108;2024-01-15T16:14:10;100137.56;;;1.92;100.00
73651;BME280;61944;52.538;6.108;2024-01-15T16:16:36;100131.78;;;2.06;100.00
73651;BME280;61944;52.538;6.108;2024-01-15T16:19:01;100111.59;;;1.93;100.00
73651;BME280;61944;52.538;6.108;2024-01-15T16:21:26;100130.44;;;1.91;100.00
73651;BME280;61944;52.538;6.108;2024-01-15T16:23:55;100124.72;;;1.96;100.00
73651;BME280;61944;52.538;6.108;2024-01-15T16:26:20;100127.00;;;1.73;100.00
73651;BME280;61944;52.538;6.108;2024-01-15T16:28:46;100141.22;;;1.83;100.00
73651;BME280;61944;52.538;6.108;2024-01-15T16:31:11;100135.72;;;1.83;100.00
73651;BME280;61944;52.538;6.108;2024-01-15T16:33:37;100137.06;;;1.77;100.00
73651;BME280;61944;52.538;6.108;2024-01-15T16:36:02;100127.84;;;1.73;100.00
73651;BME280;61944;52.538;6.108;2024-01-15T16:38:28;100120.69;;;1.72;100.00
73651;BME280;61944;52.538;6.108;2024-01-15T16:40:53;100129.25;;;1.79;100.00
73651;BME280;61944;52.538;6.108;2024-01-15T16:43:19;100139.06;;;1.68;100.00
73651;BME280;61944;52.538;6.108;2024-01-15T16:45:45;100142.13;;;2.09;100.00
73651;BME280;61944;52.538;6.108;2024-01-15T16:48:10;100141.47;;;2.12;100.00
73651;BME280;61944;52.538;6.108;2024-01-15T16:50:36;100149.34;;;2.01;100.00
73651;BME280;61944;52.538;6.108;2024-01-15T16:53:01;100149.84;;;1.82;100.00
73651;BME280;61944;52.538;6.108;2024-01-15T16:55:26;100165.53;;;1.90;100.00
73651;BME280;61944;52.538;6.108;2024-01-15T16:57:52;100176.19;;;1.92;100.00
73651;BME280;61944;52.538;6.108;2024-01-15T17:00:17;100168.41;;;1.94;100.00
73651;BME280;61944;52.538;6.108;2024-01-15T17:02:43;100171.63;;;1.96;100.00
73651;BME280;61944;52.538;6.108;2024-01-15T17:05:08;100163.03;;;1.97;100.00
73651;BME280;61944;52.538;6.108;2024-01-15T17:07:33;100173.50;;;2.04;100.00
73651;BME280;61944;52.538;6.108;2024-01-15T17:09:59;100173.41;;;2.00;100.00
73651;BME280;61944;52.538;6.108;2024-01-15T17:12:24;100177.22;;;2.08;100.00
73651;BME280;61944;52.538;6.108;2024-01-15T17:14:49;100182.56;;;1.92;100.00
73651;BME280;61944;52.538;6.108;2024-01-15T17:17:15;100188.66;;;1.98;100.00
73651;BME280;61944;52.538;6.108;2024-01-15T17:19:41;100195.72;;;1.87;100.00
73651;BME280;61944;52.538;6.108;2024-01-15T17:22:07;100200.09;;;1.88;100.00
73651;BME280;61944;52.538;6.108;2024-01-15T17:24:32;100203.69;;;1.88;100.00
73651;BME280;61944;52.538;6.108;2024-01-15T17:26:58;100200.38;;;1.74;100.00
73651;BME280;61944;52.538;6.108;2024-01-15T17:29:23;100195.88;;;1.69;100.00
73651;BME280;61944;52.538;6.108;2024-01-15T17:31:49;100205.56;;;1.75;100.00
73651;BME280;61944;52.538;6.108;2024-01-15T17:34:14;100203.47;;;1.93;100.00
73651;BME280;61944;52.538;6.108;2024-01-15T17:36:39;100200.56;;;1.90;100.00
73651;BME280;61944;52.538;6.108;2024-01-15T17:39:04;100213.03;;;1.96;100.00
73651;BME280;61944;52.538;6.108;2024-01-15T17:41:31;100205.03;;;2.03;100.00
73651;BME280;61944;52.538;6.108;2024-01-15T17:43:58;100221.94;;;2.01;100.00
73651;BME280;61944;52.538;6.108;2024-01-15T17:46:24;100218.75;;;1.91;100.00
73651;BME280;61944;52.538;6.108;2024-01-15T17:48:49;100226.44;;;2.06;100.00
73651;BME280;61944;52.538;6.108;2024-01-15T17:51:18;100232.63;;;2.03;100.00
73651;BME280;61944;52.538;6.108;2024-01-15T17:53:44;100224.44;;;1.94;100.00
73651;BME280;61944;52.538;6.108;2024-01-15T17:56:10;100225.38;;;1.98;100.00
73651;BME280;61944;52.538;6.108;2024-01-15T17:58:35;100231.94;;;2.06;100.00
73651;BME280;61944;52.538;6.108;2024-01-15T18:01:01;100244.56;;;1.95;100.00
73651;BME280;61944;52.538;6.108;2024-01-15T18:03:27;100250.81;;;2.04;100.00
73651;BME280;61944;52.538;6.108;2024-01-15T18:05:53;100263.94;;;2.07;100.00
73651;BME280;61944;52.538;6.108;2024-01-15T18:08:18;100273.00;;;1.87;100.00
73651;BME280;61944;52.538;6.108;2024-01-15T18:10:44;100265.44;;;1.75;100.00
73651;BME280;61944;52.538;6.108;2024-01-15T18:13:10;100273.75;;;1.66;100.00
73651;BME280;61944;52.538;6.108;2024-01-15T18:15:35;100255.19;;;1.54;100.00
73651;BME280;61944;52.538;6.108;2024-01-15T18:18:01;100254.81;;;1.56;100.00
73651;BME280;61944;52.538;6.108;2024-01-15T18:20:26;100262.06;;;1.69;100.00
73651;BME280;61944;52.538;6.108;2024-01-15T18:22:52;100268.88;;;1.72;100.00
73651;BME280;61944;52.538;6.108;2024-01-15T18:25:18;100270.16;;;1.74;100.00
73651;BME280;61944;52.538;6.108;2024-01-15T18:27:44;100270.84;;;1.71;100.00
73651;BME280;61944;52.538;6.108;2024-01-15T18:30:10;100276.63;;;1.78;100.00
73651;BME280;61944;52.538;6.108;2024-01-15T18:32:37;100286.28;;;1.93;100.00
73651;BME280;61944;52.538;6.108;2024-01-15T18:35:02;100288.91;;;2.11;100.00
73651;BME280;61944;52.538;6.108;2024-01-15T18:37:28;100287.25;;;2.18;100.00
73651;BME280;61944;52.538;6.108;2024-01-15T18:39:53;100293.94;;;2.17;100.00
73651;BME280;61944;52.538;6.108;2024-01-15T18:42:18;100295.91;;;2.08;100.00
73651;BME280;61944;52.538;6.108;2024-01-15T18:44:44;100299.84;;;2.07;100.00
73651;BME280;61944;52.538;6.108;2024-01-15T18:47:09;100302.06;;;2.14;100.00
73651;BME280;61944;52.538;6.108;2024-01-15T18:49:35;100312.09;;;2.18;100.00